METAR Data
IDs: Format: Raw Decoded Include TAF

Data at: 0422 UTC 20 Oct 2018

PAGN 200356Z AUTO 00000KT 10SM BKN050 OVC070 08/07 A2987 RMK AO2 RAE09 SLP105 P0000 T00830072
PAGN 200256Z AUTO 16005KT 10SM -RA FEW041 SCT070 BKN085 09/07 A2985 RMK AO2 SLP096 P0004 60009 T00890072 58001
PAGN 200156Z AUTO VRB04KT 9SM RA BKN046 BKN060 OVC095 10/07 A2987 RMK AO2 RAB29 SLP103 P0001 T01000072
PAGN 200056Z AUTO 00000KT 10SM BKN060 OVC075 09/08 A2984 RMK AO2 RAE50 SLP095 P0004 T00890083
PAGN 192356Z AUTO 00000KT 6SM -RA BR BKN049 BKN060 OVC110 10/09 A2985 RMK AO2 RAB09 SLP098 P0001 60027 T01000089 10117 20094 51012
PAGN 192256Z AUTO 00000KT 10SM BKN075 11/09 A2984 RMK AO2 SLP094 T01110089
PAGN 192156Z AUTO VRB06KT 10SM CLR 11/08 A2983 RMK AO2 RAE37 SLP091 P0002 T01110083
PAGN 192056Z AUTO 00000KT 10SM -RA BKN055 OVC070 09/08 A2982 RMK AO2 SLP086 P0001 60024 T00940083 53023
PAGN 191956Z AUTO 13007KT 3SM RA BR BKN032 OVC050 09/08 A2980 RMK AO2 SLP081 P0010 T00940083
PAGN 191856Z AUTO VRB05KT 10SM -RA BKN070 OVC090 11/09 A2975 RMK AO2 SLP064 P0013 T01060089
PAGN 191756Z AUTO VRB06KT 4SM RA BR FEW032 BKN050 OVC060 11/09 A2975 RMK AO2 PRESRR SLP063 P0012 60017 T01110094 10122 20100 53006
PAGN 191656Z AUTO 15009G16KT 9SM -RA FEW038 OVC046 12/09 A2972 RMK AO2 SLP053 P0003 T01220094
PAGN 191556Z AUTO 11009KT 10SM -RA BKN034 BKN042 OVC050 11/09 A2971 RMK AO2 SLP051 P0001 T01110089
PAGN 191456Z AUTO 10010KT 10SM -RA SCT034 SCT045 OVC065 11/08 A2973 RMK AO2 SLP057 P0000 60001 T01110083 56030
PAGN 191356Z AUTO 11011G17KT 10SM -RA BKN037 OVC050 11/08 A2976 RMK AO2 SLP066 P0000 T01110083
PAGN 191256Z AUTO 10010G17KT 10SM -RA OVC035 11/08 A2978 RMK AO2 SLP073 P0001 T01060078
PAGN 191156Z AUTO 10010KT 10SM -RA BKN035 OVC050 11/07 A2982 RMK AO2 RAE01B29 SLP087 P0000 60002 70010 T01060072 10106 20083 58037
PAGN 191056Z AUTO 11010G17KT 10SM -RA OVC035 10/07 A2986 RMK AO2 RAB18 SLP101 P0000 T01000072
PAGN 190956Z AUTO 11011G16KT 10SM BKN035 OVC047 09/07 A2990 RMK AO2 SLP114 T00940067
PAGN 190856Z AUTO 11011KT 10SM SCT039 OVC049 09/06 A2993 RMK AO2 RAE52 SLP124 P0000 60002 T00890061 401110056 58035
PAGN 190756Z AUTO 11009KT 10SM -RA FEW027 OVC039 09/06 A2997 RMK AO2 RAB13 SLP138 P0000 T00890061
PAGN 190735Z AUTO 11011G16KT 10SM -RA SCT029 OVC040 08/06 A2998 RMK AO2 RAB13 P0000
PAGN 190723Z AUTO 09006KT 10SM -RA BKN029 OVC036 08/06 A2999 RMK AO2 RAB13 P0000
PAGN 190656Z AUTO 13007G16KT 10SM BKN034 OVC046 08/06 A3000 RMK AO2 RAE46 SLP147 P0002 T00830061
PAGN 190556Z AUTO 10006KT 10SM -RA BKN039 OVC048 08/07 A3003 RMK AO2 SLP159 P0002 60007 T00830067 10094 20083 58018
PAGN 190456Z AUTO 11008KT 10SM -RA BKN038 OVC045 08/07 A3006 RMK AO2 SLP168 P0005 T00830067
PAGN 190356Z AUTO 00000KT 10SM -RA FEW017 BKN045 OVC060 09/07 A3008 RMK AO2 RAB38 SLP175 P0000 T00890072
PAGN 190256Z AUTO 04004KT 10SM OVC100 09/08 A3008 RMK AO2 SLP177 T00890078 56025
PAGN 190156Z AUTO 00000KT 10SM FEW120 09/08 A3010 RMK AO2 SLP183 T00940083
PAGN 190056Z AUTO 00000KT 10SM CLR 09/08 A3012 RMK AO2 SLP189 T00890083
PAGN 190021Z AUTO 00000KT 10SM FEW005 09/08 A3014 RMK AO2
PAGN 182356Z AUTO 00000KT 10SM BKN005 09/08 A3016 RMK AO2 SLP202 T00890083 10111 20061 58014
PAGN 182334Z AUTO 00000KT 10SM SCT005 09/08 A3017 RMK AO2
PAGN 182313Z AUTO 00000KT 10SM BKN005 09/08 A3018 RMK AO2
PAGN 182305Z AUTO 00000KT 10SM BKN007 09/08 A3019 RMK AO2
PAGN 182256Z AUTO 00000KT 10SM SCT007 09/08 A3019 RMK AO2 SLP213 T00940083
PAGN 182254Z AUTO 00000KT 10SM SCT007 10/08 A3019 RMK AO2
PAGN 182156Z AUTO 17003KT 10SM FEW035 11/09 A3020 RMK AO2 SLP216 T01060089
PAGN 181956Z AUTO 00000KT 10SM SCT006 08/07 A3024 RMK AO2 SLP231 T00830072
PAGN 181934Z AUTO 36003KT 10SM SCT006 BKN016 07/07 A3024 RMK AO2
PAGN 181916Z AUTO 00000KT 10SM SCT011 BKN016 07/07 A3025 RMK AO2
PAGN 181856Z AUTO 00000KT 10SM FEW002 BKN014 07/07 A3025 RMK AO2 SLP233 T00720067
PAGN 181849Z AUTO 00000KT 10SM SCT002 BKN016 07/07 A3025 RMK AO2
PAGN 181820Z AUTO 00000KT 3SM BR OVC002 07/06 A3024 RMK AO2
PAGN 181815Z AUTO 16003KT 1 1/4SM BR OVC002 06/06 A3023 RMK AO2
PAGN 181807Z AUTO 00000KT 3/4SM BR OVC002 06/06 A3023 RMK AO2 RVRNO
PAGN 181756Z AUTO 00000KT 4SM BR OVC002 06/06 A3023 RMK AO2 SLP225 60001 T00610061 10061 20056 52004
PAGN 181656Z AUTO 00000KT 10SM BKN002 OVC005 06/06 A3022 RMK AO2 CIG 002V005 SLP222 T00610056
PAGN 181641Z AUTO 00000KT 10SM OVC005 06/06 A3022 RMK AO2 CIG 003V006
PAGN 181624Z AUTO 00000KT 5SM BR OVC003 06/06 A3022 RMK AO2 CIG 002V006